Time;durP1;ratioP1;P1;durP2;ratioP2;P2;SDS_P1;SDS_P2;PMS_P1;PMS_P2;Temp;Humidity;BMP_temperature;BMP_pressure;BME280_temperature;BME280_humidity;BME280_pressure;Samples;Min_cycle;Max_cycle;Signal;HPM_P1;HPM_P2
2024/01/14 00:01:58;;;;;;;29.60;10.90;;;4.20;99.90;;;;;;5017914;28;20544;-72
2024/01/14 00:04:24;;;;;;;30.30;10.88;;;4.20;99.90;;;;;;5013518;28;20034;-72
2024/01/14 00:06:50;;;;;;;33.83;12.35;;;4.30;99.90;;;;;;5009745;28;20453;-74
2024/01/14 00:09:19;;;;;;;32.03;11.77;;;4.20;99.90;;;;;;5044689;28;20047;-73
2024/01/14 00:11:45;;;;;;;33.95;12.18;;;4.30;99.90;;;;;;5035046;28;20041;-73
2024/01/14 00:14:10;;;;;;;33.85;13.15;;;4.20;99.90;;;;;;5025223;28;20037;-73
2024/01/14 00:16:36;;;;;;;36.50;13.18;;;4.10;99.90;;;;;;5025194;28;20095;-73
2024/01/14 00:19:03;;;;;;;33.33;12.30;;;4.10;99.90;;;;;;5011724;28;20026;-72
2024/01/14 00:21:29;;;;;;;38.63;11.40;;;4.00;99.90;;;;;;5009670;28;22124;-72
2024/01/14 00:23:55;;;;;;;29.30;11.65;;;4.00;99.90;;;;;;5031360;28;20530;-72
2024/01/14 00:26:20;;;;;;;35.05;11.10;;;4.00;99.90;;;;;;5016267;28;20044;-71
2024/01/14 00:28:49;;;;;;;30.40;12.07;;;4.10;99.90;;;;;;5018000;28;20042;-73
2024/01/14 00:31:15;;;;;;;35.95;11.90;;;4.10;99.90;;;;;;5016845;28;20575;-72
2024/01/14 00:33:40;;;;;;;31.92;12.57;;;4.10;99.90;;;;;;5014802;28;20083;-72
2024/01/14 00:36:07;;;;;;;34.65;12.38;;;4.10;99.90;;;;;;5019223;28;20115;-72
2024/01/14 00:38:32;;;;;;;28.67;11.82;;;4.10;99.90;;;;;;5025011;28;20155;-72
2024/01/14 00:40:58;;;;;;;30.05;11.95;;;4.10;99.90;;;;;;5020584;28;20045;-73
2024/01/14 00:43:24;;;;;;;32.40;12.65;;;4.10;99.90;;;;;;5006100;28;20034;-73
2024/01/14 00:45:50;;;;;;;35.92;12.63;;;4.10;99.90;;;;;;5005994;28;20033;-73
2024/01/14 00:48:15;;;;;;;31.27;12.75;;;4.10;99.90;;;;;;5004899;28;20137;-72
2024/01/14 00:50:41;;;;;;;35.03;12.27;;;4.10;99.90;;;;;;5012148;28;20417;-72
2024/01/14 00:53:07;;;;;;;42.22;14.48;;;4.10;99.90;;;;;;5025642;28;20030;-73
2024/01/14 00:55:32;;;;;;;36.33;13.40;;;4.10;99.90;;;;;;5024161;28;20034;-73
2024/01/14 00:57:58;;;;;;;34.58;13.50;;;4.10;99.90;;;;;;5021461;28;20502;-73
2024/01/14 01:00:24;;;;;;;34.50;13.23;;;4.10;99.90;;;;;;5023818;28;20037;-72
2024/01/14 01:02:50;;;;;;;40.90;15.10;;;4.10;99.90;;;;;;5026372;28;20034;-72
2024/01/14 01:05:16;;;;;;;37.38;14.60;;;4.10;99.90;;;;;;5025031;28;20038;-72
2024/01/14 01:07:41;;;;;;;35.85;13.55;;;4.10;99.90;;;;;;5026266;28;20396;-72
2024/01/14 01:10:07;;;;;;;33.50;13.65;;;4.00;99.90;;;;;;5026531;28;20048;-71
2024/01/14 01:12:33;;;;;;;41.58;14.27;;;4.00;99.90;;;;;;5025781;28;20038;-72
2024/01/14 01:15:00;;;;;;;37.70;13.25;;;4.10;99.90;;;;;;5007580;28;20152;-73
2024/01/14 01:17:25;;;;;;;35.95;14.15;;;4.10;99.90;;;;;;5005610;28;20402;-72
2024/01/14 01:19:51;;;;;;;35.63;13.95;;;4.10;99.90;;;;;;5004778;28;20046;-73
2024/01/14 01:22:17;;;;;;;36.53;14.32;;;4.10;99.90;;;;;;5010442;28;20041;-74
2024/01/14 01:24:43;;;;;;;34.03;12.98;;;4.10;99.90;;;;;;5041335;28;20039;-72
2024/01/14 01:27:09;;;;;;;34.63;13.45;;;4.10;99.90;;;;;;5046826;28;20136;-72
2024/01/14 01:29:35;;;;;;;36.22;14.48;;;4.00;99.90;;;;;;5044952;28;20025;-73
2024/01/14 01:32:00;;;;;;;39.35;13.52;;;4.00;99.90;;;;;;5031446;28;20152;-72
2024/01/14 01:34:26;;;;;;;32.72;12.48;;;4.00;99.90;;;;;;5010422;28;20038;-74
2024/01/14 01:36:51;;;;;;;41.53;14.75;;;4.00;99.90;;;;;;5013316;28;20029;-73
2024/01/14 01:39:17;;;;;;;38.10;14.90;;;4.00;99.90;;;;;;5010173;28;20045;-73
2024/01/14 01:41:42;;;;;;;43.10;12.80;;;4.00;99.90;;;;;;5018916;28;20056;-71
2024/01/14 01:44:09;;;;;;;37.35;12.80;;;4.00;99.90;;;;;;5021251;28;20041;-72
2024/01/14 01:46:35;;;;;;;31.67;11.50;;;3.90;99.90;;;;;;5025227;28;20068;-72
2024/01/14 01:49:02;;;;;;;34.85;12.13;;;3.90;99.90;;;;;;5024540;28;20041;-73
2024/01/14 01:51:29;;;;;;;30.33;11.95;;;3.90;99.90;;;;;;5017136;28;20112;-72
2024/01/14 01:53:56;;;;;;;31.08;11.40;;;3.90;99.90;;;;;;5026549;28;20033;-72
2024/01/14 01:56:22;;;;;;;27.35;11.13;;;3.80;99.90;;;;;;5010863;28;20029;-72
2024/01/14 01:58:48;;;;;;;27.23;12.18;;;3.80;99.90;;;;;;5011477;28;20113;-72
2024/01/14 02:01:14;;;;;;;30.10;11.50;;;3.70;99.90;;;;;;5009999;28;20101;-73
2024/01/14 02:03:40;;;;;;;31.85;12.75;;;3.70;99.90;;;;;;5013472;28;20116;-72
2024/01/14 02:06:08;;;;;;;37.28;12.65;;;3.60;99.90;;;;;;5030452;28;20065;-71
2024/01/14 02:08:34;;;;;;;31.75;12.63;;;3.70;99.90;;;;;;5043100;28;20036;-72
2024/01/14 02:11:00;;;;;;;32.88;11.43;;;3.60;99.90;;;;;;5030899;28;20033;-73
2024/01/14 02:13:25;;;;;;;34.20;12.15;;;3.60;99.90;;;;;;5027687;28;20572;-72
2024/01/14 02:15:51;;;;;;;31.88;12.07;;;3.50;99.90;;;;;;5032890;28;20061;-73
2024/01/14 02:18:16;;;;;;;29.48;12.02;;;3.50;99.90;;;;;;5029958;28;20026;-72
2024/01/14 02:20:42;;;;;;;37.47;13.48;;;3.50;99.90;;;;;;5030902;28;20029;-72
2024/01/14 02:23:11;;;;;;;38.90;14.65;;;3.50;99.90;;;;;;5035803;28;20124;-73
2024/01/14 02:25:36;;;;;;;45.45;15.57;;;3.50;99.90;;;;;;5050631;28;20045;-72
2024/01/14 02:28:02;;;;;;;39.25;14.10;;;3.50;99.90;;;;;;5032297;28;20394;-73
2024/01/14 02:30:29;;;;;;;45.33;14.68;;;3.50;99.90;;;;;;5026371;28;20116;-74
2024/01/14 02:32:55;;;;;;;46.45;16.05;;;3.40;99.90;;;;;;5011361;28;20096;-73
2024/01/14 02:35:20;;;;;;;43.05;15.55;;;3.50;99.90;;;;;;5018396;28;20724;-72
2024/01/14 02:37:47;;;;;;;46.40;15.90;;;3.40;99.90;;;;;;5016303;28;20038;-74
2024/01/14 02:40:13;;;;;;;41.53;14.35;;;3.40;99.90;;;;;;5022948;28;20037;-73
2024/01/14 02:42:40;;;;;;;47.85;15.23;;;3.40;99.90;;;;;;5032160;28;20030;-73
2024/01/14 02:45:08;;;;;;;54.92;18.52;;;3.50;99.90;;;;;;5010944;28;20030;-73
2024/01/14 02:47:33;;;;;;;52.20;17.20;;;3.50;99.90;;;;;;5010347;28;20423;-71
2024/01/14 02:49:59;;;;;;;46.83;15.35;;;3.50;99.90;;;;;;5016354;28;20124;-73
2024/01/14 02:52:25;;;;;;;38.88;15.63;;;3.50;99.90;;;;;;5026712;28;20527;-73
2024/01/14 02:54:50;;;;;;;35.92;14.68;;;3.50;99.90;;;;;;5027664;28;20029;-73
2024/01/14 02:57:16;;;;;;;43.90;15.88;;;3.50;99.90;;;;;;5006429;28;20137;-73
2024/01/14 02:59:41;;;;;;;48.50;15.48;;;3.50;99.90;;;;;;5021484;28;20500;-73
2024/01/14 03:02:07;;;;;;;42.90;14.60;;;3.50;99.90;;;;;;5027597;28;20117;-73
2024/01/14 03:04:32;;;;;;;41.28;14.00;;;3.50;99.90;;;;;;5026291;28;20083;-73
2024/01/14 03:06:58;;;;;;;38.97;14.63;;;3.50;99.90;;;;;;5030143;28;20038;-72
2024/01/14 03:09:23;;;;;;;35.53;13.73;;;3.50;99.90;;;;;;5047204;28;20048;-72
2024/01/14 03:11:49;;;;;;;51.03;16.13;;;3.50;99.90;;;;;;5046859;28;20033;-72
2024/01/14 03:14:15;;;;;;;33.67;12.20;;;3.50;99.90;;;;;;5026277;28;20136;-73
2024/01/14 03:16:40;;;;;;;38.17;13.90;;;3.50;99.90;;;;;;5015573;28;20049;-74
2024/01/14 03:19:06;;;;;;;42.97;15.60;;;3.50;99.90;;;;;;5009091;28;20041;-73
2024/01/14 03:21:32;;;;;;;39.05;14.93;;;3.50;99.90;;;;;;5015691;28;20053;-72
2024/01/14 03:23:57;;;;;;;34.53;12.48;;;3.50;99.90;;;;;;5027567;28;20033;-72
2024/01/14 03:26:23;;;;;;;36.85;13.13;;;3.40;99.90;;;;;;5036448;28;20041;-74
2024/01/14 03:28:49;;;;;;;35.50;12.95;;;3.50;99.90;;;;;;5011267;28;20048;-72
2024/01/14 03:31:15;;;;;;;32.15;11.77;;;3.50;99.90;;;;;;5005817;28;20155;-72
2024/01/14 03:33:42;;;;;;;34.85;13.80;;;3.50;99.90;;;;;;5007959;28;20475;-74
2024/01/14 03:36:08;;;;;;;44.88;14.15;;;3.50;99.90;;;;;;5007470;28;20029;-73
2024/01/14 03:38:34;;;;;;;37.40;12.35;;;3.50;99.90;;;;;;5007513;28;20113;-72
2024/01/14 03:40:59;;;;;;;31.85;12.00;;;3.60;99.90;;;;;;5011884;28;20041;-73
2024/01/14 03:43:25;;;;;;;32.72;12.15;;;3.60;99.90;;;;;;5014101;28;20132;-71
2024/01/14 03:45:50;;;;;;;36.53;14.18;;;3.60;99.90;;;;;;5007643;28;20505;-73
2024/01/14 03:48:16;;;;;;;37.58;13.68;;;3.60;99.90;;;;;;5023027;28;20033;-73
2024/01/14 03:50:42;;;;;;;38.90;13.23;;;3.60;99.90;;;;;;5007930;28;20080;-72
2024/01/14 03:53:08;;;;;;;32.65;13.80;;;3.60;99.90;;;;;;5006708;28;20030;-73
2024/01/14 03:55:33;;;;;;;33.80;12.85;;;3.50;99.90;;;;;;5005675;28;20114;-72
2024/01/14 03:57:59;;;;;;;39.33;14.43;;;3.50;99.90;;;;;;5007105;28;20126;-73
2024/01/14 04:00:24;;;;;;;36.50;14.05;;;3.50;99.90;;;;;;5006682;28;20271;-73
2024/01/14 04:02:50;;;;;;;32.25;12.82;;;3.50;99.90;;;;;;5008217;28;20636;-73
2024/01/14 04:05:16;;;;;;;34.97;11.63;;;3.50;99.90;;;;;;5009260;28;20041;-72
2024/01/14 04:07:41;;;;;;;48.47;14.70;;;3.50;99.90;;;;;;5031030;28;20405;-73
2024/01/14 04:10:07;;;;;;;37.13;13.25;;;3.60;99.90;;;;;;5029662;28;20037;-73
2024/01/14 04:12:33;;;;;;;35.75;13.30;;;3.60;99.90;;;;;;5020702;28;20118;-73
2024/01/14 04:14:59;;;;;;;36.40;14.43;;;3.60;99.90;;;;;;5008438;28;20510;-72
2024/01/14 04:17:41;;;;;;;;;;;;;;;;;;;;;
2024/01/14 04:20:08;;;;;;;29.52;12.02;;;3.60;99.90;;;;;;5008642;28;20513;-72
2024/01/14 04:22:34;;;;;;;34.58;13.50;;;3.60;99.90;;;;;;5006304;28;20041;-73
2024/01/14 04:25:00;;;;;;;30.30;13.10;;;3.50;99.90;;;;;;5047840;28;20048;-75
2024/01/14 04:27:26;;;;;;;35.50;13.15;;;3.60;99.90;;;;;;5032619;28;20136;-74
2024/01/14 04:29:52;;;;;;;30.85;12.57;;;3.60;99.90;;;;;;4998230;28;20728;-72
2024/01/14 04:32:18;;;;;;;34.80;13.05;;;3.60;99.90;;;;;;5005604;28;20131;-73
2024/01/14 04:34:44;;;;;;;36.72;12.70;;;3.60;99.90;;;;;;5014121;28;20461;-72
2024/01/14 04:37:10;;;;;;;34.72;12.98;;;3.60;99.90;;;;;;5025531;28;20052;-74
2024/01/14 04:39:36;;;;;;;35.25;13.93;;;3.60;99.90;;;;;;5023086;28;20461;-72
2024/01/14 04:42:05;;;;;;;33.42;12.95;;;3.50;99.90;;;;;;5010328;28;20030;-73
2024/01/14 04:44:33;;;;;;;28.95;11.50;;;3.50;99.90;;;;;;5009450;28;20041;-72
2024/01/14 04:46:59;;;;;;;29.23;12.38;;;3.50;99.90;;;;;;5024254;28;20084;-72
2024/01/14 04:49:25;;;;;;;26.40;10.90;;;3.50;99.90;;;;;;5021805;28;20044;-73
2024/01/14 04:51:51;;;;;;;31.08;12.63;;;3.50;99.90;;;;;;5025326;28;20034;-74
2024/01/14 04:54:25;;;;;;;32.22;12.57;;;3.40;99.90;;;;;;5028224;28;20052;-71
2024/01/14 04:56:52;;;;;;;31.92;11.27;;;3.50;99.90;;;;;;5005162;28;20048;-71
2024/01/14 04:59:18;;;;;;;29.08;11.10;;;3.50;99.90;;;;;;5012249;28;20073;-74
2024/01/14 05:01:47;;;;;;;31.63;12.60;;;3.50;99.90;;;;;;5015209;28;20037;-72
2024/01/14 05:04:14;;;;;;;30.77;10.88;;;3.50;99.90;;;;;;5008821;28;20034;-73
2024/01/14 05:06:39;;;;;;;26.08;10.20;;;3.50;99.90;;;;;;5024488;28;20041;-71
2024/01/14 05:09:05;;;;;;;30.00;12.15;;;3.50;99.90;;;;;;5039722;28;20037;-72
2024/01/14 05:11:32;;;;;;;30.67;12.02;;;3.50;99.90;;;;;;5028024;28;20037;-74
2024/01/14 05:14:00;;;;;;;28.13;11.10;;;3.60;99.90;;;;;;5018990;28;20075;-72
2024/01/14 05:16:27;;;;;;;27.45;11.55;;;3.50;99.90;;;;;;5023735;28;20071;-72
2024/01/14 05:18:54;;;;;;;29.73;11.73;;;3.50;99.90;;;;;;5014718;28;20033;-72
2024/01/14 05:21:20;;;;;;;24.92;11.30;;;3.50;99.90;;;;;;5012844;28;20048;-73
2024/01/14 05:23:46;;;;;;;33.50;12.05;;;3.50;99.90;;;;;;5021991;28;20553;-73
2024/01/14 05:26:13;;;;;;;29.65;11.88;;;3.50;99.90;;;;;;5043599;28;20124;-73
2024/01/14 05:28:46;;;;;;;23.92;9.38;;;3.50;99.90;;;;;;5039787;28;20040;-72
2024/01/14 05:31:12;;;;;;;29.65;12.40;;;3.40;99.90;;;;;;5011747;28;20057;-72
2024/01/14 05:33:44;;;;;;;35.95;12.77;;;3.40;99.90;;;;;;5009683;28;20025;-71
2024/01/14 05:36:10;;;;;;;28.83;13.00;;;3.40;99.90;;;;;;5004845;28;20037;-73
2024/01/14 05:38:36;;;;;;;27.52;11.35;;;3.40;99.90;;;;;;5019997;28;20030;-73
2024/01/14 05:41:05;;;;;;;30.52;11.70;;;3.40;99.90;;;;;;5002793;28;20125;-72
2024/01/14 05:43:31;;;;;;;29.00;11.85;;;3.40;99.90;;;;;;5002665;28;20046;-72
2024/01/14 05:45:59;;;;;;;28.58;11.85;;;3.40;99.90;;;;;;5003141;28;20042;-74
2024/01/14 05:48:25;;;;;;;33.38;12.10;;;3.40;99.90;;;;;;5014014;28;20061;-73
2024/01/14 05:50:51;;;;;;;27.92;11.43;;;3.40;99.90;;;;;;5023570;28;20060;-73
2024/01/14 05:53:20;;;;;;;33.13;12.05;;;3.40;99.90;;;;;;5008765;28;20041;-73
2024/01/14 05:55:46;;;;;;;30.67;11.05;;;3.40;99.90;;;;;;5010349;28;20029;-72
2024/01/14 05:58:12;;;;;;;37.20;13.18;;;3.40;99.90;;;;;;5024299;28;20033;-72
2024/01/14 06:00:43;;;;;;;29.23;13.27;;;3.30;99.90;;;;;;5016593;28;20109;-72
2024/01/14 06:03:09;;;;;;;31.25;13.07;;;3.30;99.90;;;;;;5024235;28;20053;-72
2024/01/14 06:05:36;;;;;;;32.80;13.43;;;3.20;99.90;;;;;;5020666;28;20083;-72
2024/01/14 06:08:02;;;;;;;36.08;13.88;;;3.20;99.90;;;;;;5034229;28;20044;-73
2024/01/14 06:10:29;;;;;;;35.83;13.57;;;3.20;99.90;;;;;;5027139;28;20041;-72
2024/01/14 06:12:55;;;;;;;28.77;12.45;;;3.20;99.90;;;;;;5015284;28;20096;-72
2024/01/14 06:15:21;;;;;;;40.67;13.57;;;3.20;99.90;;;;;;5022457;28;20387;-72
2024/01/14 06:17:47;;;;;;;30.85;13.15;;;3.30;99.90;;;;;;5015741;28;20075;-73
2024/01/14 06:20:15;;;;;;;35.15;15.02;;;3.20;99.90;;;;;;5011795;28;20037;-72
2024/01/14 06:22:41;;;;;;;35.75;13.68;;;3.30;99.90;;;;;;5022992;28;20038;-71
2024/01/14 06:25:10;;;;;;;32.97;14.02;;;3.30;99.90;;;;;;5046635;28;20056;-73
2024/01/14 06:27:39;;;;;;;33.88;14.57;;;3.30;99.90;;;;;;4998822;28;20052;-71
2024/01/14 06:30:08;;;;;;;31.98;13.13;;;3.30;99.90;;;;;;5026749;28;20029;-73
2024/01/14 06:32:34;;;;;;;31.17;13.10;;;3.30;99.90;;;;;;5008199;28;20053;-72
2024/01/14 06:35:03;;;;;;;30.30;13.48;;;3.30;99.90;;;;;;5025123;28;20554;-72
2024/01/14 06:37:29;;;;;;;36.03;14.10;;;3.30;99.90;;;;;;5023424;28;20048;-71
2024/01/14 06:39:55;;;;;;;32.85;13.40;;;3.30;99.90;;;;;;5026188;28;20071;-73
2024/01/14 06:42:21;;;;;;;32.97;13.70;;;3.30;99.90;;;;;;5026927;28;20037;-73
2024/01/14 06:44:47;;;;;;;33.95;12.45;;;3.20;99.90;;;;;;5021167;28;20049;-73
2024/01/14 06:47:13;;;;;;;32.97;12.40;;;3.20;99.90;;;;;;5026441;28;20045;-73
2024/01/14 06:49:39;;;;;;;32.47;13.07;;;3.20;99.90;;;;;;5024075;28;20055;-72
2024/01/14 06:52:06;;;;;;;31.55;12.85;;;3.20;99.90;;;;;;5033810;28;20060;-72
2024/01/14 06:54:32;;;;;;;34.42;14.55;;;3.20;99.90;;;;;;5021156;28;20054;-73
2024/01/14 06:56:58;;;;;;;37.97;13.15;;;3.20;99.90;;;;;;5010232;28;20547;-73
2024/01/14 06:59:24;;;;;;;36.00;12.65;;;3.20;99.90;;;;;;5005798;28;20041;-72
2024/01/14 07:01:50;;;;;;;35.67;12.75;;;3.20;99.90;;;;;;5002244;28;20413;-75
2024/01/14 07:04:16;;;;;;;32.08;12.38;;;3.30;99.90;;;;;;5019238;28;20397;-73
2024/01/14 07:06:42;;;;;;;38.55;14.25;;;3.20;99.90;;;;;;5022211;28;20097;-73
2024/01/14 07:09:14;;;;;;;42.92;15.25;;;3.20;99.90;;;;;;5036115;28;20230;-72
2024/01/14 07:11:40;;;;;;;35.05;13.15;;;3.30;99.90;;;;;;5045415;28;20079;-73
2024/01/14 07:14:06;;;;;;;40.95;13.30;;;3.30;99.90;;;;;;5044417;28;20037;-73
2024/01/14 07:16:35;;;;;;;36.25;14.98;;;3.30;99.90;;;;;;5045876;28;20025;-72
2024/01/14 07:19:01;;;;;;;41.40;14.95;;;3.30;99.90;;;;;;5047144;28;20037;-72
2024/01/14 07:21:28;;;;;;;34.70;13.23;;;3.30;99.90;;;;;;4995862;28;20116;-73
2024/01/14 07:24:00;;;;;;;40.65;14.70;;;3.30;99.90;;;;;;5017942;28;20132;-74
2024/01/14 07:26:26;;;;;;;33.80;13.15;;;3.30;99.90;;;;;;5024879;28;20099;-72
2024/01/14 07:28:52;;;;;;;37.25;13.18;;;3.30;99.90;;;;;;5012331;28;20064;-73
2024/01/14 07:31:21;;;;;;;42.90;14.05;;;3.30;99.90;;;;;;5024257;28;20041;-72
2024/01/14 07:33:50;;;;;;;34.50;12.18;;;3.30;99.90;;;;;;5017810;28;20068;-73
2024/01/14 07:36:17;;;;;;;42.73;15.17;;;3.40;99.90;;;;;;5017813;28;20487;-72
2024/01/14 07:38:46;;;;;;;33.60;13.73;;;3.40;99.90;;;;;;5024790;28;20433;-72
2024/01/14 07:41:15;;;;;;;38.92;14.57;;;3.40;99.90;;;;;;5010020;28;20057;-72
2024/01/14 07:43:41;;;;;;;35.45;13.15;;;3.40;99.90;;;;;;5004628;28;20057;-72
2024/01/14 07:46:08;;;;;;;35.33;13.75;;;3.40;99.90;;;;;;5001908;28;20033;-72
2024/01/14 07:48:35;;;;;;;36.20;13.77;;;3.40;99.90;;;;;;5006140;28;20125;-72
2024/01/14 07:51:03;;;;;;;35.40;12.82;;;3.40;99.90;;;;;;5009785;28;20030;-73
2024/01/14 07:53:30;;;;;;;35.08;13.75;;;3.40;99.90;;;;;;5012198;28;20042;-72
2024/01/14 07:55:56;;;;;;;33.33;12.90;;;3.40;99.90;;;;;;5012236;28;20096;-72
2024/01/14 07:58:22;;;;;;;33.55;12.30;;;3.40;99.90;;;;;;5006068;28;20495;-72
2024/01/14 08:00:48;;;;;;;26.63;11.60;;;3.40;99.90;;;;;;5013687;28;20041;-73
2024/01/14 08:03:14;;;;;;;31.10;12.07;;;3.50;99.90;;;;;;5000100;28;20067;-72
2024/01/14 08:05:42;;;;;;;33.08;13.13;;;3.40;99.90;;;;;;5022407;28;20139;-72
2024/01/14 08:08:09;;;;;;;30.02;12.15;;;3.40;99.90;;;;;;5036451;28;20573;-72
2024/01/14 08:10:42;;;;;;;28.23;11.43;;;3.40;99.90;;;;;;5013425;28;20536;-72
2024/01/14 08:13:08;;;;;;;28.83;11.18;;;3.50;99.90;;;;;;5005281;28;20581;-72
2024/01/14 08:15:39;;;;;;;33.53;11.73;;;3.40;99.90;;;;;;5008566;28;20564;-72
2024/01/14 08:18:05;;;;;;;27.38;11.85;;;3.40;99.90;;;;;;5023720;28;20398;-71
2024/01/14 08:20:32;;;;;;;30.50;12.20;;;3.50;99.90;;;;;;5017687;28;21043;-73
2024/01/14 08:23:01;;;;;;;29.77;11.85;;;3.40;99.90;;;;;;5017190;28;20452;-72
2024/01/14 08:25:28;;;;;;;39.13;12.32;;;3.50;99.90;;;;;;5007900;28;20497;-72
2024/01/14 08:27:54;;;;;;;33.97;12.55;;;3.50;99.90;;;;;;5026960;28;20395;-71
2024/01/14 08:30:20;;;;;;;29.90;12.68;;;3.50;99.90;;;;;;4993867;28;20453;-72
2024/01/14 08:32:46;;;;;;;31.95;11.73;;;3.50;99.90;;;;;;4995897;28;20041;-73
2024/01/14 08:35:14;;;;;;;29.88;11.95;;;3.50;99.90;;;;;;5029565;28;20655;-72
2024/01/14 08:37:46;;;;;;;30.00;12.40;;;3.50;99.90;;;;;;5015379;28;20408;-72
2024/01/14 08:40:15;;;;;;;31.10;13.10;;;3.60;99.90;;;;;;4994788;28;20406;-72
2024/01/14 08:42:44;;;;;;;34.35;12.80;;;3.60;99.90;;;;;;5006241;28;20065;-73
2024/01/14 08:45:19;;;;;;;33.17;12.68;;;3.60;99.90;;;;;;5018394;28;20037;-74
2024/01/14 08:47:48;;;;;;;31.45;12.18;;;3.60;99.90;;;;;;5017653;28;20420;-72
2024/01/14 08:50:21;;;;;;;32.85;12.68;;;3.60;99.90;;;;;;4996265;28;20414;-72
2024/01/14 08:52:50;;;;;;;29.35;12.27;;;3.70;99.90;;;;;;5004335;28;20029;-72
2024/01/14 08:55:15;;;;;;;30.00;12.60;;;3.70;99.90;;;;;;5024394;28;20611;-71
2024/01/14 08:57:41;;;;;;;31.20;11.75;;;3.70;99.90;;;;;;5008533;28;20041;-71
2024/01/14 09:00:10;;;;;;;34.15;12.07;;;3.70;99.90;;;;;;5004387;28;20087;-71
2024/01/14 09:02:39;;;;;;;33.63;12.73;;;3.70;99.90;;;;;;4994323;28;20071;-73
2024/01/14 09:05:05;;;;;;;43.08;14.20;;;3.70;99.90;;;;;;5003966;28;20168;-72
2024/01/14 09:07:37;;;;;;;33.80;12.05;;;3.80;99.90;;;;;;5042883;28;20073;-71
2024/01/14 09:10:07;;;;;;;34.80;13.45;;;3.80;99.90;;;;;;5025917;28;20672;-72
2024/01/14 09:12:39;;;;;;;31.88;12.77;;;3.80;99.90;;;;;;5021989;28;20048;-72
2024/01/14 09:15:08;;;;;;;35.88;12.50;;;3.80;99.90;;;;;;5001746;28;20575;-71
2024/01/14 09:17:34;;;;;;;27.38;11.50;;;3.80;99.90;;;;;;5025443;28;20052;-71
2024/01/14 09:20:01;;;;;;;31.98;12.85;;;3.80;99.90;;;;;;4996398;28;20095;-71
2024/01/14 09:22:29;;;;;;;33.58;13.02;;;3.80;99.90;;;;;;5007047;28;20052;-71
2024/01/14 09:24:55;;;;;;;37.05;13.20;;;3.80;99.90;;;;;;5021878;28;20106;-71
2024/01/14 09:27:21;;;;;;;27.63;11.05;;;3.80;99.90;;;;;;5006873;28;20123;-72
2024/01/14 09:29:47;;;;;;;34.65;14.77;;;3.80;99.90;;;;;;5021470;28;20041;-73
2024/01/14 09:32:13;;;;;;;40.00;13.10;;;3.80;99.90;;;;;;5015607;28;20030;-72
2024/01/14 09:34:39;;;;;;;30.48;11.40;;;3.80;99.90;;;;;;4998226;28;20451;-73
2024/01/14 09:37:06;;;;;;;31.48;13.13;;;3.80;99.90;;;;;;4999464;28;20044;-72
2024/01/14 09:39:34;;;;;;;34.78;13.52;;;3.80;99.90;;;;;;5013626;28;20041;-72
2024/01/14 09:42:11;;;;;;;35.70;13.70;;;3.80;99.90;;;;;;5017938;28;20033;-74
2024/01/14 09:44:37;;;;;;;33.88;14.02;;;3.80;99.90;;;;;;5013685;28;20052;-73
2024/01/14 09:47:03;;;;;;;34.13;12.43;;;3.80;99.90;;;;;;5019809;28;20429;-73
2024/01/14 09:49:29;;;;;;;32.58;11.82;;;3.80;99.90;;;;;;5014877;28;20912;-74
2024/01/14 09:51:55;;;;;;;29.67;11.30;;;3.80;99.90;;;;;;5013492;28;20038;-73
2024/01/14 09:54:21;;;;;;;38.53;13.70;;;3.80;99.90;;;;;;5014760;28;20470;-74
2024/01/14 09:56:50;;;;;;;32.67;12.20;;;3.70;99.90;;;;;;5025803;28;20060;-74
2024/01/14 09:59:17;;;;;;;29.83;11.35;;;3.80;99.90;;;;;;5014401;28;20029;-73
2024/01/14 10:01:43;;;;;;;32.45;12.63;;;3.70;99.90;;;;;;5020818;28;20044;-72
2024/01/14 10:04:09;;;;;;;31.30;11.93;;;3.80;99.90;;;;;;5017701;28;20030;-72
2024/01/14 10:06:35;;;;;;;34.90;13.43;;;3.80;99.90;;;;;;5016149;28;20034;-73
2024/01/14 10:09:01;;;;;;;36.15;14.05;;;3.80;99.90;;;;;;5025341;28;20034;-73
2024/01/14 10:11:27;;;;;;;38.90;14.90;;;3.80;99.90;;;;;;5016291;28;20084;-73
2024/01/14 10:13:52;;;;;;;37.42;12.60;;;3.80;99.90;;;;;;5015224;28;20033;-72
2024/01/14 10:16:18;;;;;;;41.03;14.52;;;3.80;99.90;;;;;;5017777;28;20478;-73
2024/01/14 10:18:44;;;;;;;40.17;15.77;;;3.80;99.90;;;;;;5018672;28;20136;-73
2024/01/14 10:21:10;;;;;;;40.15;14.50;;;3.80;99.90;;;;;;5017051;28;20536;-73
2024/01/14 10:23:36;;;;;;;45.35;16.50;;;3.80;99.90;;;;;;5021644;28;20140;-73
2024/01/14 10:26:02;;;;;;;45.33;13.63;;;3.80;99.90;;;;;;5016986;28;20512;-73
2024/01/14 10:28:31;;;;;;;36.78;13.45;;;3.80;99.90;;;;;;5015000;28;20026;-73
2024/01/14 10:30:58;;;;;;;37.17;14.45;;;3.80;99.90;;;;;;5018357;28;20034;-74
2024/01/14 10:33:25;;;;;;;36.17;13.23;;;3.80;99.90;;;;;;5013926;28;20025;-74
2024/01/14 10:35:51;;;;;;;31.77;11.90;;;3.80;99.90;;;;;;5018708;28;20394;-73
2024/01/14 10:38:21;;;;;;;38.35;12.73;;;3.90;99.90;;;;;;5014750;28;20026;-74
2024/01/14 10:40:46;;;;;;;38.20;13.52;;;3.90;99.90;;;;;;5022534;28;20091;-75
2024/01/14 10:43:12;;;;;;;35.97;14.35;;;3.90;99.90;;;;;;5015627;28;20541;-75
2024/01/14 10:45:38;;;;;;;32.90;12.82;;;3.90;99.90;;;;;;5018602;28;20483;-73
2024/01/14 10:48:09;;;;;;;36.33;13.85;;;3.90;99.90;;;;;;5012905;28;20132;-74
2024/01/14 10:50:36;;;;;;;40.72;14.35;;;3.90;99.90;;;;;;5037279;28;20401;-73
2024/01/14 10:53:07;;;;;;;35.22;13.57;;;3.90;99.90;;;;;;5021632;28;20828;-75
2024/01/14 10:55:49;;;;;;;40.88;13.82;;;3.90;99.90;;;;;;5015267;28;20109;-73
2024/01/14 10:58:29;;;;;;;43.33;14.10;;;3.90;99.90;;;;;;5019515;28;20089;-74
2024/01/14 11:01:00;;;;;;;38.10;13.50;;;3.90;99.90;;;;;;5019466;28;20120;-73
2024/01/14 11:03:27;;;;;;;37.40;12.75;;;3.90;99.90;;;;;;5010829;28;20052;-74
2024/01/14 11:05:53;;;;;;;46.53;13.02;;;4.00;99.90;;;;;;5013720;28;20440;-73
2024/01/14 11:08:21;;;;;;;34.47;12.88;;;3.90;99.90;;;;;;5017418;28;20033;-73
2024/01/14 11:10:48;;;;;;;39.60;12.65;;;4.00;99.90;;;;;;5009404;28;20096;-73
2024/01/14 11:13:21;;;;;;;39.85;13.63;;;3.90;99.90;;;;;;5014009;28;20494;-73
2024/01/14 11:16:15;;;;;;;39.00;13.55;;;3.90;99.90;;;;;;5018206;28;20116;-73
2024/01/14 11:19:00;;;;;;;40.45;13.68;;;3.90;99.90;;;;;;5017833;28;20037;-73
2024/01/14 11:21:42;;;;;;;37.95;13.57;;;4.00;99.90;;;;;;5011279;28;20052;-73
2024/01/14 11:24:08;;;;;;;35.88;13.55;;;4.00;99.90;;;;;;5021755;28;20061;-74
2024/01/14 11:26:33;;;;;;;40.17;13.10;;;4.00;99.90;;;;;;5017268;28;20693;-74
2024/01/14 11:29:01;;;;;;;41.00;15.13;;;4.10;99.90;;;;;;5015681;28;20037;-73
2024/01/14 11:32:04;;;;;;;41.05;14.32;;;4.10;99.90;;;;;;5012266;28;20080;-74
2024/01/14 11:34:48;;;;;;;41.45;14.32;;;4.20;99.90;;;;;;5014930;28;20041;-74
2024/01/14 11:37:29;;;;;;;40.05;14.07;;;4.30;99.90;;;;;;5014967;28;20038;-74
2024/01/14 11:40:11;;;;;;;32.70;12.65;;;4.20;99.90;;;;;;5016448;28;20033;-72
2024/01/14 11:42:50;;;;;;;43.05;13.60;;;4.30;99.90;;;;;;5017128;28;20125;-73
2024/01/14 11:45:24;;;;;;;34.22;13.70;;;4.20;99.90;;;;;;5014753;28;20172;-73
2024/01/14 11:47:55;;;;;;;31.92;12.23;;;4.20;99.90;;;;;;5020138;28;20575;-72
2024/01/14 11:50:21;;;;;;;26.88;10.43;;;4.20;99.90;;;;;;5012435;28;20156;-73
2024/01/14 11:52:50;;;;;;;28.70;11.13;;;4.10;99.90;;;;;;5015321;28;20037;-73
2024/01/14 11:55:23;;;;;;;28.80;10.98;;;4.10;99.90;;;;;;5018423;28;20563;-73
2024/01/14 11:57:49;;;;;;;30.58;11.85;;;4.20;99.90;;;;;;5025311;28;20367;-72
2024/01/14 12:00:17;;;;;;;27.38;10.90;;;4.30;99.90;;;;;;5016550;28;20124;-72
2024/01/14 12:02:42;;;;;;;24.60;10.30;;;4.30;99.90;;;;;;5021911;28;20068;-73
2024/01/14 12:05:21;;;;;;;24.38;10.32;;;4.40;99.90;;;;;;5024431;28;20072;-73
2024/01/14 12:07:48;;;;;;;25.48;9.70;;;4.40;99.90;;;;;;5014669;28;20049;-73
2024/01/14 12:10:20;;;;;;;24.13;10.25;;;4.40;99.90;;;;;;5016117;28;20570;-73
2024/01/14 12:12:46;;;;;;;26.00;11.10;;;4.50;99.90;;;;;;5015560;28;20450;-73
2024/01/14 12:15:13;;;;;;;23.88;9.40;;;4.50;99.90;;;;;;5016229;28;20026;-75
2024/01/14 12:17:38;;;;;;;23.05;9.63;;;4.50;99.90;;;;;;5012469;28;20149;-73
2024/01/14 12:20:08;;;;;;;29.05;10.55;;;4.50;99.90;;;;;;5014732;28;20128;-73
2024/01/14 12:22:37;;;;;;;26.67;10.32;;;4.50;99.90;;;;;;5016407;28;20045;-73
2024/01/14 12:25:03;;;;;;;23.73;9.90;;;4.50;99.90;;;;;;5023314;28;20041;-73
2024/01/14 12:27:29;;;;;;;24.67;10.65;;;4.50;99.90;;;;;;5034019;28;20509;-73
2024/01/14 12:29:55;;;;;;;24.60;9.85;;;4.60;99.90;;;;;;5019489;28;20382;-73
2024/01/14 12:32:21;;;;;;;27.77;10.93;;;4.50;99.90;;;;;;5025966;28;20033;-73
2024/01/14 12:34:49;;;;;;;29.58;12.10;;;4.50;99.90;;;;;;5029331;28;20037;-73
2024/01/14 12:37:15;;;;;;;32.35;12.45;;;4.50;99.90;;;;;;5024010;28;20038;-73
2024/01/14 12:39:40;;;;;;;29.40;11.18;;;4.50;99.90;;;;;;5015923;28;20585;-73